Rich Hill, Missouri
Current Conditions -  °F | °C
As of 6:15 AM on Friday 28 Nov 2014 (Local Time) from KGLY Reporting Station
Clear Clear  
Wind Chill: 28°   Ceiling: Unl
Heat Index: 36°   Visibility: 10mi
Dew Point: 28°   Wind: 12mph
Humidity: 75%   Direction: 170°S
Pressure: 30.11"   Gusts: NA
Location:  38.1°N, 94.36°W
Report Text: KGLY 281215Z AUTO 17010KT 10SM CLR 02/M02 A3011 RMK AO2
Loading
Personal Weather Stations






























Interactive Weather Map New forecast layout! Learn more

10-Day Weather Forecast

Advertisements
Track Severe Weather on mobile